createdAt,value
2024-02-20T00:01:10.762Z,47.13
2024-02-20T00:03:37.543Z,45.28
2024-02-20T00:06:04.699Z,48.03
2024-02-20T00:08:31.466Z,48.85
2024-02-20T00:10:58.469Z,47.50
2024-02-20T00:13:25.285Z,46.03
2024-02-20T00:15:52.084Z,45.70
2024-02-20T00:18:19.129Z,46.03
2024-02-20T00:20:46.051Z,46.70
2024-02-20T00:23:15.369Z,42.75
2024-02-20T00:25:45.669Z,39.20
2024-02-20T00:28:13.328Z,43.90
2024-02-20T00:30:40.078Z,40.88
2024-02-20T00:33:06.827Z,38.08
2024-02-20T00:35:33.729Z,32.45
2024-02-20T00:38:00.419Z,35.45
2024-02-20T00:40:27.290Z,32.70
2024-02-20T00:42:54.395Z,38.00
2024-02-20T00:45:21.183Z,36.47
2024-02-20T00:47:48.040Z,34.13
2024-02-20T00:50:16.248Z,34.90
2024-02-20T00:52:43.317Z,35.45
2024-02-20T00:55:10.545Z,34.60
2024-02-20T00:57:37.430Z,34.05
2024-02-20T01:00:05.092Z,33.22
2024-02-20T01:02:31.780Z,37.15
2024-02-20T01:04:58.534Z,32.08
2024-02-20T01:07:26.032Z,36.80
2024-02-20T01:09:53.081Z,38.08
2024-02-20T01:12:19.754Z,35.33
2024-02-20T01:14:48.348Z,33.85
2024-02-20T01:17:15.054Z,38.38
2024-02-20T01:19:41.745Z,37.42
2024-02-20T01:22:08.454Z,36.63
2024-02-20T01:24:35.209Z,39.85
2024-02-20T01:27:02.018Z,33.85
2024-02-20T01:29:28.792Z,34.22
2024-02-20T01:31:55.470Z,34.08
2024-02-20T01:34:22.722Z,27.10
2024-02-20T01:36:50.407Z,33.85
2024-02-20T01:39:17.170Z,26.73
2024-02-20T01:41:44.571Z,33.05
2024-02-20T01:44:11.559Z,31.80
2024-02-20T01:46:39.059Z,27.15
2024-02-20T01:49:06.145Z,27.45
2024-02-20T01:51:33.854Z,36.13
2024-02-20T01:54:00.618Z,28.90
2024-02-20T01:56:27.478Z,32.72
2024-02-20T01:58:54.174Z,30.67
2024-02-20T02:01:24.303Z,28.15
2024-02-20T02:03:51.231Z,25.60
2024-02-20T02:06:18.107Z,24.70
2024-02-20T02:08:44.855Z,30.60
2024-02-20T02:11:11.624Z,25.52
2024-02-20T02:13:38.388Z,32.17
2024-02-20T02:16:05.463Z,29.75
2024-02-20T02:18:32.278Z,27.30
2024-02-20T02:20:59.006Z,29.92
2024-02-20T02:23:26.136Z,30.48
2024-02-20T02:25:52.860Z,33.85
2024-02-20T02:28:19.623Z,35.88
2024-02-20T02:30:46.357Z,29.52
2024-02-20T02:33:13.261Z,31.00
2024-02-20T02:35:40.623Z,28.25
2024-02-20T02:38:07.289Z,28.83
2024-02-20T02:40:34.235Z,28.85
2024-02-20T02:43:01.147Z,31.30
2024-02-20T02:45:32.460Z,28.27
2024-02-20T02:47:59.239Z,28.65
2024-02-20T02:50:26.077Z,29.02
2024-02-20T02:52:52.885Z,32.60
2024-02-20T02:55:22.076Z,28.30
2024-02-20T02:57:48.783Z,26.92
2024-02-20T03:00:15.957Z,31.17
2024-02-20T03:02:42.680Z,23.75
2024-02-20T03:05:09.671Z,28.52
2024-02-20T03:07:36.498Z,66.68
2024-02-20T03:10:03.655Z,40.25
2024-02-20T03:12:32.860Z,34.95
2024-02-20T03:15:00.921Z,29.55
2024-02-20T03:17:27.712Z,30.30
2024-02-20T03:19:54.464Z,40.55
2024-02-20T03:22:21.291Z,111.63
2024-02-20T03:24:48.392Z,35.20
2024-02-20T03:27:15.180Z,32.90
2024-02-20T03:29:44.539Z,32.85
2024-02-20T03:32:11.322Z,30.45
2024-02-20T03:34:38.183Z,79.68
2024-02-20T03:37:05.162Z,88.25
2024-02-20T03:39:31.942Z,51.33
2024-02-20T03:41:58.900Z,29.52
2024-02-20T03:44:25.654Z,36.78
2024-02-20T03:46:52.373Z,37.47
2024-02-20T03:49:19.405Z,29.98
2024-02-20T03:51:47.433Z,36.88
2024-02-20T03:54:14.127Z,35.35
2024-02-20T03:56:40.812Z,36.95
2024-02-20T03:59:08.614Z,32.40
2024-02-20T04:01:35.757Z,33.75
2024-02-20T04:04:05.008Z,33.40
2024-02-20T04:06:32.322Z,41.88
2024-02-20T04:09:04.749Z,44.22
2024-02-20T04:11:32.192Z,35.80
2024-02-20T04:13:59.372Z,36.50
2024-02-20T04:16:26.262Z,33.33
2024-02-20T04:18:53.001Z,29.63
2024-02-20T04:21:19.838Z,34.20
2024-02-20T04:23:46.623Z,68.95
2024-02-20T04:26:13.274Z,47.05
2024-02-20T04:28:39.978Z,40.65
2024-02-20T04:31:06.680Z,45.78
2024-02-20T04:33:33.650Z,51.88
2024-02-20T04:36:00.334Z,60.47
2024-02-20T04:38:27.011Z,60.45
2024-02-20T04:40:54.196Z,52.38
2024-02-20T04:43:20.919Z,59.58
2024-02-20T04:45:48.493Z,60.58
2024-02-20T04:48:15.571Z,55.55
2024-02-20T04:50:42.336Z,53.65
2024-02-20T04:53:10.316Z,37.80
2024-02-20T04:55:38.044Z,35.17
2024-02-20T04:58:06.834Z,39.70
2024-02-20T05:00:33.825Z,37.45
2024-02-20T05:03:00.985Z,43.85
2024-02-20T05:05:27.778Z,40.40
2024-02-20T05:07:55.553Z,43.30
2024-02-20T05:10:22.926Z,49.53
2024-02-20T05:12:49.788Z,46.13
2024-02-20T05:15:16.667Z,41.42
2024-02-20T05:17:43.521Z,40.45
2024-02-20T05:20:10.922Z,43.05
2024-02-20T05:22:37.970Z,37.88
2024-02-20T05:25:07.840Z,38.63
2024-02-20T05:27:34.849Z,34.83
2024-02-20T05:30:01.588Z,42.65
2024-02-20T05:32:28.602Z,54.50
2024-02-20T05:34:55.884Z,59.03
2024-02-20T05:37:22.659Z,62.00
2024-02-20T05:39:49.325Z,46.40
2024-02-20T05:42:15.954Z,79.53
2024-02-20T05:44:42.631Z,40.35
2024-02-20T05:47:09.341Z,49.60
2024-02-20T05:49:36.316Z,43.15
2024-02-20T05:52:03.101Z,38.90
2024-02-20T05:54:30.608Z,33.25
2024-02-20T05:56:58.300Z,33.30
2024-02-20T05:59:24.984Z,35.13
2024-02-20T06:01:51.689Z,34.40
2024-02-20T06:04:18.572Z,68.80
2024-02-20T06:06:47.426Z,42.00
2024-02-20T06:09:14.605Z,32.72
2024-02-20T06:11:41.374Z,34.58
2024-02-20T06:14:08.098Z,38.80
2024-02-20T06:16:34.861Z,33.60
2024-02-20T06:19:01.675Z,28.83
2024-02-20T06:21:28.550Z,31.00
2024-02-20T06:23:55.736Z,36.80
2024-02-20T06:26:23.550Z,33.30
2024-02-20T06:28:50.348Z,54.42
2024-02-20T06:31:18.278Z,45.38
2024-02-20T06:33:45.468Z,44.40
2024-02-20T06:36:12.243Z,38.72
2024-02-20T06:38:38.957Z,35.85
2024-02-20T06:41:06.099Z,32.28
2024-02-20T06:43:32.984Z,31.27
2024-02-20T06:45:59.745Z,34.47
2024-02-20T06:48:26.524Z,35.95
2024-02-20T06:50:53.661Z,40.75
2024-02-20T06:53:20.597Z,113.53
2024-02-20T06:55:47.502Z,49.67
2024-02-20T06:58:14.295Z,86.07
2024-02-20T07:00:41.188Z,44.65
2024-02-20T07:03:08.167Z,48.05
2024-02-20T07:05:35.364Z,39.08
2024-02-20T07:08:02.541Z,34.65
2024-02-20T07:10:29.469Z,37.72
2024-02-20T07:12:58.754Z,37.70
2024-02-20T07:15:25.545Z,39.53
2024-02-20T07:17:52.262Z,54.28
2024-02-20T07:20:19.510Z,60.28
2024-02-20T07:22:50.985Z,44.20
2024-02-20T07:25:20.839Z,45.80
2024-02-20T07:27:47.989Z,43.45
2024-02-20T07:30:14.711Z,63.50
2024-02-20T07:32:42.942Z,55.83
2024-02-20T07:35:11.571Z,46.70
2024-02-20T07:37:39.629Z,58.30
2024-02-20T07:40:07.470Z,49.33
2024-02-20T07:42:35.142Z,48.22
2024-02-20T07:45:01.921Z,58.45
2024-02-20T07:47:28.704Z,48.03
2024-02-20T07:49:55.456Z,54.92
2024-02-20T07:52:22.289Z,58.40
2024-02-20T07:54:49.011Z,86.63
2024-02-20T07:57:15.821Z,41.85
2024-02-20T07:59:42.555Z,39.22
2024-02-20T08:02:10.630Z,41.67
2024-02-20T08:04:39.160Z,46.72
2024-02-20T08:07:06.275Z,43.67
2024-02-20T08:09:33.005Z,48.08
2024-02-20T08:11:59.624Z,39.05
2024-02-20T08:14:26.883Z,39.55
2024-02-20T08:16:53.701Z,47.97
2024-02-20T08:19:20.551Z,37.85
2024-02-20T08:21:47.309Z,38.35
2024-02-20T08:24:14.069Z,41.13
2024-02-20T08:26:40.833Z,44.78
2024-02-20T08:29:09.578Z,35.20
2024-02-20T08:31:36.500Z,37.22
2024-02-20T08:34:03.349Z,51.50
2024-02-20T08:36:31.344Z,48.40
2024-02-20T08:38:58.231Z,43.55
2024-02-20T08:41:24.940Z,41.28
2024-02-20T08:43:52.519Z,41.45
2024-02-20T08:46:19.559Z,36.95
2024-02-20T08:48:46.994Z,53.55
2024-02-20T08:51:15.736Z,55.60
2024-02-20T08:53:42.767Z,38.70
2024-02-20T08:56:09.399Z,43.15
2024-02-20T08:58:36.214Z,73.97
2024-02-20T09:01:03.306Z,53.92
2024-02-20T09:03:31.244Z,35.90
2024-02-20T09:05:58.563Z,36.05
2024-02-20T09:08:25.512Z,31.10
2024-02-20T09:10:52.410Z,29.55
2024-02-20T09:13:19.227Z,34.80
2024-02-20T09:15:47.011Z,30.50
2024-02-20T09:18:13.847Z,38.90
2024-02-20T09:20:40.709Z,32.25
2024-02-20T09:23:07.537Z,28.70
2024-02-20T09:25:34.268Z,32.55
2024-02-20T09:28:01.035Z,28.30
2024-02-20T09:30:27.833Z,29.02
2024-02-20T09:32:54.641Z,27.42
2024-02-20T09:35:21.757Z,18.42
2024-02-20T09:37:48.613Z,17.08
2024-02-20T09:40:18.004Z,18.55
2024-02-20T09:42:47.169Z,18.95
2024-02-20T09:45:18.294Z,18.88
2024-02-20T09:47:45.082Z,22.90
2024-02-20T09:50:13.649Z,19.98
2024-02-20T09:52:41.427Z,19.67
2024-02-20T09:55:08.328Z,20.30
2024-02-20T09:57:34.956Z,24.55
2024-02-20T10:00:01.759Z,59.30
2024-02-20T10:02:29.993Z,23.38
2024-02-20T10:04:56.848Z,18.35
2024-02-20T10:07:23.714Z,22.83
2024-02-20T10:09:50.531Z,19.25
2024-02-20T10:12:24.744Z,14.90
2024-02-20T10:14:51.617Z,11.38
2024-02-20T10:17:18.660Z,14.18
2024-02-20T10:19:45.549Z,14.07
2024-02-20T10:22:12.459Z,14.80
2024-02-20T10:24:39.685Z,11.50
2024-02-20T10:27:06.714Z,12.55
2024-02-20T10:29:33.610Z,12.13
2024-02-20T10:32:00.321Z,14.50
2024-02-20T10:34:27.239Z,11.02
2024-02-20T10:37:07.260Z,10.38
2024-02-20T10:39:34.780Z,12.80
2024-02-20T10:42:05.407Z,14.88
2024-02-20T10:44:32.448Z,23.40
2024-02-20T10:46:59.503Z,14.07
2024-02-20T10:49:34.740Z,13.93
2024-02-20T10:52:03.634Z,19.70
2024-02-20T10:54:39.482Z,18.33
2024-02-20T10:57:13.124Z,20.98
2024-02-20T10:59:39.800Z,18.58
2024-02-20T11:02:06.625Z,20.35
2024-02-20T11:04:33.432Z,18.42
2024-02-20T11:07:00.458Z,18.63
2024-02-20T11:09:27.323Z,16.08
2024-02-20T11:11:54.026Z,13.25
2024-02-20T11:14:30.527Z,16.60
2024-02-20T11:16:57.355Z,17.40
2024-02-20T11:19:27.801Z,16.52
2024-02-20T11:21:54.662Z,13.10
2024-02-20T11:24:21.465Z,20.40
2024-02-20T11:26:51.751Z,15.90
2024-02-20T11:29:28.593Z,33.08
2024-02-20T11:31:55.281Z,14.57
2024-02-20T11:34:26.937Z,19.30
2024-02-20T11:36:53.819Z,18.33
2024-02-20T11:39:20.515Z,17.48
2024-02-20T11:41:47.250Z,13.23
2024-02-20T11:44:15.739Z,29.27
2024-02-20T11:46:46.210Z,13.73
2024-02-20T11:49:21.171Z,25.55
2024-02-20T11:51:47.890Z,29.58
2024-02-20T11:54:14.664Z,21.00
2024-02-20T11:56:41.363Z,47.60
2024-02-20T11:59:09.632Z,33.75
2024-02-20T12:01:37.921Z,45.15
2024-02-20T12:04:08.231Z,21.95
2024-02-20T12:06:37.497Z,15.80
2024-02-20T12:09:04.864Z,17.55
2024-02-20T12:11:31.914Z,23.67
2024-02-20T12:14:00.671Z,19.42
2024-02-20T12:16:31.691Z,12.90
2024-02-20T12:21:29.479Z,11.80
2024-02-20T12:23:57.594Z,15.30
2024-02-20T12:26:24.721Z,10.65
2024-02-20T12:28:51.736Z,15.98
2024-02-20T12:31:29.572Z,16.38
2024-02-20T12:33:57.089Z,11.05
2024-02-20T12:36:26.076Z,19.10
2024-02-20T12:38:52.870Z,13.30
2024-02-20T12:41:19.729Z,11.93
2024-02-20T12:43:46.690Z,11.02
2024-02-20T12:46:13.521Z,10.48
2024-02-20T12:48:42.067Z,11.77
2024-02-20T12:51:09.060Z,16.50
2024-02-20T12:53:38.690Z,14.43
2024-02-20T12:56:06.068Z,16.42
2024-02-20T12:58:33.279Z,13.35
2024-02-20T13:01:00.176Z,15.43
2024-02-20T13:03:27.051Z,13.70
2024-02-20T13:05:53.677Z,12.43
2024-02-20T13:08:20.409Z,12.32
2024-02-20T13:10:47.185Z,26.55
2024-02-20T13:13:14.250Z,98.53
2024-02-20T13:15:41.017Z,17.60
2024-02-20T13:18:07.782Z,10.15
2024-02-20T13:20:35.038Z,9.85
2024-02-20T13:23:02.521Z,12.32
2024-02-20T13:25:29.405Z,11.95
2024-02-20T13:27:56.760Z,13.68
2024-02-20T13:30:23.633Z,26.67
2024-02-20T13:32:50.497Z,13.73
2024-02-20T13:35:19.571Z,12.43
2024-02-20T13:37:49.934Z,28.90
2024-02-20T13:40:17.704Z,33.75
2024-02-20T13:42:44.508Z,23.65
2024-02-20T13:45:11.449Z,19.00
2024-02-20T13:47:38.319Z,19.30
2024-02-20T13:50:06.166Z,14.93
2024-02-20T13:52:33.193Z,15.07
2024-02-20T13:55:00.130Z,20.20
2024-02-20T13:57:26.854Z,22.38
2024-02-20T13:59:53.521Z,31.83
2024-02-20T14:02:21.063Z,14.25
2024-02-20T14:04:48.825Z,15.68
2024-02-20T14:07:16.292Z,12.43
2024-02-20T14:09:43.148Z,19.35
2024-02-20T14:12:10.076Z,16.58
2024-02-20T14:14:36.916Z,11.57
2024-02-20T14:17:03.769Z,20.20
2024-02-20T14:19:31.352Z,16.80
2024-02-20T14:21:58.300Z,11.55
2024-02-20T14:24:25.031Z,14.93
2024-02-20T14:26:51.719Z,11.02
2024-02-20T14:29:21.756Z,12.35
2024-02-20T14:31:49.126Z,12.85
2024-02-20T14:34:16.341Z,12.45
2024-02-20T14:36:43.825Z,12.05
2024-02-20T14:39:10.620Z,14.30
2024-02-20T14:41:37.397Z,15.02
2024-02-20T14:44:04.344Z,15.38
2024-02-20T14:46:31.293Z,14.98
2024-02-20T14:48:58.339Z,17.88
2024-02-20T14:51:25.132Z,16.83
2024-02-20T14:53:51.984Z,14.05
2024-02-20T14:56:18.758Z,16.48
2024-02-20T14:58:45.657Z,20.55
2024-02-20T15:01:12.565Z,17.30
2024-02-20T15:03:39.470Z,17.30
2024-02-20T15:06:08.015Z,14.18
2024-02-20T15:08:34.936Z,16.75
2024-02-20T15:11:02.697Z,15.68
2024-02-20T15:13:31.776Z,13.18
2024-02-20T15:15:58.929Z,15.45
2024-02-20T15:18:29.361Z,15.90
2024-02-20T15:20:56.365Z,15.00
2024-02-20T15:23:23.304Z,13.98
2024-02-20T15:25:50.521Z,13.73
2024-02-20T15:28:17.486Z,17.77
2024-02-20T15:30:44.223Z,12.98
2024-02-20T15:33:11.253Z,14.95
2024-02-20T15:35:38.130Z,13.25
2024-02-20T15:38:05.194Z,14.77
2024-02-20T15:40:36.521Z,14.70
2024-02-20T15:43:03.279Z,23.60
2024-02-20T15:45:30.095Z,14.13
2024-02-20T15:47:58.221Z,19.23
2024-02-20T15:50:25.312Z,17.08
2024-02-20T15:52:52.333Z,16.48
2024-02-20T15:55:19.875Z,16.13
2024-02-20T15:57:46.908Z,22.83
2024-02-20T16:00:14.156Z,23.73
2024-02-20T16:02:41.015Z,21.30
2024-02-20T16:05:08.291Z,14.48
2024-02-20T16:07:35.181Z,18.00
2024-02-20T16:10:01.945Z,18.52
2024-02-20T16:12:29.369Z,21.90
2024-02-20T16:15:00.958Z,19.05
2024-02-20T16:17:28.700Z,14.55
2024-02-20T16:19:56.717Z,18.55
2024-02-20T16:22:23.757Z,14.70
2024-02-20T16:24:50.561Z,13.95
2024-02-20T16:27:17.516Z,16.50
2024-02-20T16:29:45.073Z,13.40
2024-02-20T16:32:11.781Z,27.70
2024-02-20T16:34:39.100Z,80.40
2024-02-20T16:37:06.561Z,61.58
2024-02-20T16:39:35.097Z,42.85
2024-02-20T16:42:01.872Z,43.55
2024-02-20T16:44:28.601Z,111.15
2024-02-20T16:46:55.604Z,42.80
2024-02-20T16:49:22.489Z,35.10
2024-02-20T16:51:49.258Z,27.20
2024-02-20T16:54:15.935Z,25.80
2024-02-20T16:56:42.790Z,36.10
2024-02-20T16:59:09.496Z,32.25
2024-02-20T17:01:36.352Z,29.13
2024-02-20T17:04:03.077Z,24.00
2024-02-20T17:06:29.959Z,24.83
2024-02-20T17:08:58.594Z,23.17
2024-02-20T17:11:25.490Z,30.05
2024-02-20T17:13:52.278Z,38.33
2024-02-20T17:16:19.350Z,35.28
2024-02-20T17:18:46.154Z,38.63
2024-02-20T17:21:14.537Z,43.35
2024-02-20T17:23:41.423Z,42.97
2024-02-20T17:26:08.811Z,55.72
2024-02-20T17:28:36.421Z,52.47
2024-02-20T17:31:05.514Z,72.97
2024-02-20T17:33:32.797Z,54.65
2024-02-20T17:36:02.215Z,105.82
2024-02-20T17:38:29.382Z,77.78
2024-02-20T17:40:56.393Z,70.88
2024-02-20T17:43:23.235Z,63.72
2024-02-20T17:45:50.107Z,57.35
2024-02-20T17:48:16.999Z,68.38
2024-02-20T17:50:43.942Z,71.45
2024-02-20T17:53:10.689Z,53.22
2024-02-20T17:55:37.511Z,61.95
2024-02-20T17:58:04.409Z,50.53
2024-02-20T18:00:31.850Z,60.55
2024-02-20T18:02:58.645Z,52.95
2024-02-20T18:05:25.512Z,40.17
2024-02-20T18:07:52.303Z,44.35
2024-02-20T18:10:19.287Z,43.28
2024-02-20T18:12:46.095Z,51.35
2024-02-20T18:15:12.862Z,42.38
2024-02-20T18:17:39.759Z,33.53
2024-02-20T18:20:07.191Z,28.83
2024-02-20T18:22:34.075Z,28.00
2024-02-20T18:25:00.934Z,32.28
2024-02-20T18:27:27.817Z,34.22
2024-02-20T18:29:54.473Z,32.40
2024-02-20T18:32:21.184Z,40.60
2024-02-20T18:34:48.011Z,24.67
2024-02-20T18:37:15.910Z,21.77
2024-02-20T18:39:47.576Z,88.15
2024-02-20T18:42:15.405Z,79.78
2024-02-20T18:44:42.554Z,51.17
2024-02-20T18:47:09.371Z,33.50
2024-02-20T18:49:37.041Z,26.23
2024-02-20T18:52:04.059Z,34.35
2024-02-20T18:54:32.755Z,26.45
2024-02-20T18:57:00.227Z,25.55
2024-02-20T18:59:27.236Z,30.85
2024-02-20T19:01:56.932Z,36.78
2024-02-20T19:04:25.194Z,33.20
2024-02-20T19:06:52.228Z,49.38
2024-02-20T19:09:19.229Z,51.35
2024-02-20T19:11:46.936Z,46.42
2024-02-20T19:14:15.271Z,47.83
2024-02-20T19:16:42.681Z,37.53
2024-02-20T19:19:09.623Z,37.90
2024-02-20T19:21:36.719Z,30.92
2024-02-20T19:24:03.921Z,31.33
2024-02-20T19:26:30.610Z,27.75
2024-02-20T19:28:58.684Z,33.28
2024-02-20T19:31:25.896Z,35.55
2024-02-20T19:33:52.722Z,36.92
2024-02-20T19:36:19.583Z,35.85
2024-02-20T19:38:47.373Z,45.05
2024-02-20T19:41:14.575Z,51.25
2024-02-20T19:43:41.534Z,59.42
2024-02-20T19:46:09.223Z,56.63
2024-02-20T19:48:36.352Z,68.43
2024-02-20T19:51:03.528Z,37.15
2024-02-20T19:53:30.212Z,31.45
2024-02-20T19:55:58.055Z,52.75
2024-02-20T19:58:24.797Z,99.75
2024-02-20T20:00:51.580Z,71.40
2024-02-20T20:03:18.327Z,52.95
2024-02-20T20:05:45.294Z,46.13
2024-02-20T20:08:12.049Z,45.53
2024-02-20T20:10:38.904Z,53.72
2024-02-20T20:13:06.113Z,64.30
2024-02-20T20:15:37.875Z,46.40
2024-02-20T20:18:05.284Z,46.85
2024-02-20T20:20:32.129Z,47.35
2024-02-20T20:22:58.856Z,44.15
2024-02-20T20:25:25.679Z,52.03
2024-02-20T20:27:53.311Z,46.35
2024-02-20T20:30:21.784Z,51.75
2024-02-20T20:32:48.713Z,56.13
2024-02-20T20:35:15.518Z,67.45
2024-02-20T20:37:42.644Z,66.18
2024-02-20T20:40:10.538Z,66.25
2024-02-20T20:42:37.331Z,65.30
2024-02-20T20:47:32.235Z,51.97
2024-02-20T20:49:59.069Z,61.58
2024-02-20T20:52:25.781Z,60.28
2024-02-20T20:54:52.535Z,71.90
2024-02-20T20:57:19.310Z,74.78
2024-02-20T20:59:46.164Z,70.05
2024-02-20T21:02:14.375Z,56.85
2024-02-20T21:04:43.101Z,55.65
2024-02-20T21:07:10.015Z,47.17
2024-02-20T21:09:36.884Z,33.55
2024-02-20T21:12:04.059Z,34.88
2024-02-20T21:14:30.880Z,28.15
2024-02-20T21:16:58.040Z,28.70
2024-02-20T21:19:25.056Z,27.38
2024-02-20T21:21:51.843Z,27.65
2024-02-20T21:24:18.530Z,28.98
2024-02-20T21:26:46.095Z,27.15
2024-02-20T21:29:13.271Z,27.85
2024-02-20T21:31:40.281Z,26.25
2024-02-20T21:34:08.504Z,32.38
2024-02-20T21:36:37.777Z,33.92
2024-02-20T21:39:05.356Z,28.27
2024-02-20T21:41:32.111Z,31.02
2024-02-20T21:43:59.124Z,34.35
2024-02-20T21:46:26.048Z,40.60
2024-02-20T21:48:52.923Z,34.95
2024-02-20T21:51:20.254Z,35.10
2024-02-20T21:53:47.422Z,36.53
2024-02-20T21:56:16.523Z,49.40
2024-02-20T21:58:44.899Z,40.30
2024-02-20T22:01:11.968Z,48.00
2024-02-20T22:03:38.989Z,69.57
2024-02-20T22:06:05.908Z,69.32
2024-02-20T22:08:32.968Z,122.10
2024-02-20T22:11:00.403Z,49.95
2024-02-20T22:13:30.982Z,45.47
2024-02-20T22:15:58.074Z,46.67
2024-02-20T22:18:28.116Z,40.47
2024-02-20T22:20:56.518Z,43.85
2024-02-20T22:23:23.340Z,46.97
2024-02-20T22:25:50.165Z,44.70
2024-02-20T22:28:17.009Z,46.15
2024-02-20T22:30:43.731Z,47.88
2024-02-20T22:33:10.603Z,43.50
2024-02-20T22:35:37.473Z,47.00
2024-02-20T22:38:06.477Z,56.70
2024-02-20T22:40:33.278Z,55.08
2024-02-20T22:43:00.196Z,64.88
2024-02-20T22:45:27.034Z,56.83
2024-02-20T22:47:53.876Z,54.42
2024-02-20T22:50:20.752Z,49.90
2024-02-20T22:52:47.657Z,53.17
2024-02-20T22:55:14.599Z,90.63
2024-02-20T22:57:41.329Z,61.78
2024-02-20T23:00:13.188Z,71.00
2024-02-20T23:02:39.940Z,64.38
2024-02-20T23:05:07.130Z,55.13
2024-02-20T23:07:34.022Z,51.67
2024-02-20T23:10:00.741Z,52.25
2024-02-20T23:12:27.538Z,44.13
2024-02-20T23:14:55.341Z,40.35
2024-02-20T23:17:22.079Z,36.13
2024-02-20T23:19:48.829Z,39.00
2024-02-20T23:22:15.610Z,35.13
2024-02-20T23:24:42.333Z,33.15
2024-02-20T23:27:09.044Z,45.95
2024-02-20T23:29:35.856Z,41.03
2024-02-20T23:32:02.585Z,34.83
2024-02-20T23:34:29.468Z,31.35
2024-02-20T23:36:56.216Z,34.83
2024-02-20T23:39:22.974Z,37.72
2024-02-20T23:41:50.468Z,38.42
2024-02-20T23:44:17.193Z,38.47
2024-02-20T23:46:44.069Z,31.77
2024-02-20T23:49:11.023Z,32.20
2024-02-20T23:51:37.915Z,30.83
2024-02-20T23:54:04.600Z,30.75
2024-02-20T23:56:31.249Z,30.15
2024-02-20T23:58:58.073Z,30.30
